createdAt,value
2018-02-14T00:01:48.784Z,-1.45
2018-02-14T00:04:16.270Z,-1.37
2018-02-14T00:06:43.754Z,-1.31
2018-02-14T00:09:11.253Z,-1.31
2018-02-14T00:11:39.613Z,-1.34
2018-02-14T00:14:07.125Z,-1.27
2018-02-14T00:16:34.738Z,-1.33
2018-02-14T00:19:02.261Z,-1.36
2018-02-14T00:21:29.757Z,-1.38
2018-02-14T00:23:57.277Z,-1.77
2018-02-14T00:26:24.792Z,-1.92
2018-02-14T00:28:52.293Z,-1.75
2018-02-14T00:31:19.806Z,-1.88
2018-02-14T00:33:47.282Z,-1.77
2018-02-14T00:36:14.775Z,-1.78
2018-02-14T00:38:42.265Z,-1.69
2018-02-14T00:41:09.757Z,-1.62
2018-02-14T00:43:37.248Z,-1.71
2018-02-14T00:46:04.720Z,-1.58
2018-02-14T00:48:32.228Z,-1.55
2018-02-14T00:50:59.698Z,-1.62
2018-02-14T00:53:27.194Z,-1.63
2018-02-14T00:55:54.682Z,-1.60
2018-02-14T00:58:22.157Z,-1.57
2018-02-14T01:00:49.667Z,-1.50
2018-02-14T01:03:17.141Z,-1.49
2018-02-14T01:05:44.632Z,-1.41
2018-02-14T01:08:12.118Z,-1.49
2018-02-14T01:10:39.616Z,-1.49
2018-02-14T01:13:07.122Z,-1.41
2018-02-14T01:15:34.628Z,-1.43
2018-02-14T01:18:02.144Z,-1.61
2018-02-14T01:20:35.429Z,-1.69
2018-02-14T01:23:02.939Z,-1.75
2018-02-14T01:25:30.448Z,-1.76
2018-02-14T01:27:57.964Z,-1.77
2018-02-14T01:30:25.485Z,-1.96
2018-02-14T01:32:53.043Z,-1.96
2018-02-14T01:35:20.559Z,-2.07
2018-02-14T01:37:48.056Z,-2.09
2018-02-14T01:40:15.564Z,-2.12
2018-02-14T01:42:43.060Z,-2.16
2018-02-14T01:45:10.593Z,-2.19
2018-02-14T01:47:38.111Z,-2.15
2018-02-14T01:50:05.611Z,-2.17
2018-02-14T01:52:33.106Z,-2.15
2018-02-14T01:55:00.654Z,-2.21
2018-02-14T01:57:28.145Z,-2.16
2018-02-14T01:59:55.618Z,-2.17
2018-02-14T02:02:23.136Z,-2.21
2018-02-14T02:04:50.656Z,-2.26
2018-02-14T02:07:18.117Z,-2.36
2018-02-14T02:09:45.621Z,-2.32
2018-02-14T02:12:13.150Z,-2.38
2018-02-14T02:14:40.654Z,-2.51
2018-02-14T02:17:08.150Z,-2.37
2018-02-14T02:19:35.652Z,-2.34
2018-02-14T02:22:03.172Z,-2.38
2018-02-14T02:24:30.646Z,-2.39
2018-02-14T02:26:58.140Z,-2.37
2018-02-14T02:29:25.648Z,-2.37
2018-02-14T02:31:53.126Z,-2.37
2018-02-14T02:34:20.609Z,-2.41
2018-02-14T02:36:48.088Z,-2.46
2018-02-14T02:39:27.353Z,-2.47
2018-02-14T02:41:54.834Z,-2.44
2018-02-14T02:44:22.360Z,-2.42
2018-02-14T02:46:49.860Z,-2.46
2018-02-14T02:49:17.353Z,-2.48
2018-02-14T02:51:44.823Z,-2.47
2018-02-14T02:54:12.320Z,-2.46
2018-02-14T02:56:39.797Z,-2.53
2018-02-14T02:59:07.279Z,-2.45
2018-02-14T03:01:34.772Z,-2.40
2018-02-14T03:04:02.256Z,-2.39
2018-02-14T03:06:29.754Z,-2.45
2018-02-14T03:08:57.256Z,-2.50
2018-02-14T03:11:24.752Z,-2.50
2018-02-14T03:13:52.252Z,-2.50
2018-02-14T03:16:19.770Z,-2.52
2018-02-14T03:18:47.272Z,-2.44
2018-02-14T03:21:14.749Z,-2.42
2018-02-14T03:23:42.244Z,-2.35
2018-02-14T03:26:09.748Z,-2.38
2018-02-14T03:28:37.256Z,-2.35
2018-02-14T03:31:06.705Z,-2.20
2018-02-14T03:33:34.192Z,-2.40
2018-02-14T03:36:01.671Z,-2.42
2018-02-14T03:38:29.150Z,-2.47
2018-02-14T03:40:56.645Z,-2.53
2018-02-14T03:43:24.134Z,-2.60
2018-02-14T03:45:51.650Z,-2.64
2018-02-14T03:48:19.133Z,-2.60
2018-02-14T03:50:46.617Z,-2.62
2018-02-14T03:53:14.116Z,-2.53
2018-02-14T03:55:41.613Z,-2.51
2018-02-14T03:58:09.089Z,-2.57
2018-02-14T04:00:36.584Z,-2.69
2018-02-14T04:03:04.089Z,-2.70
2018-02-14T04:05:31.570Z,-2.58
2018-02-14T04:07:59.083Z,-2.57
2018-02-14T04:10:26.570Z,-2.62
2018-02-14T04:12:54.075Z,-2.63
2018-02-14T04:15:21.592Z,-2.54
2018-02-14T04:17:49.106Z,-2.57
2018-02-14T04:20:16.598Z,-2.60
2018-02-14T04:22:44.112Z,-2.63
2018-02-14T04:25:11.599Z,-2.57
2018-02-14T04:27:39.086Z,-2.61
2018-02-14T04:30:06.574Z,-2.61
2018-02-14T04:32:34.119Z,-2.54
2018-02-14T04:35:01.597Z,-2.54
2018-02-14T04:37:29.101Z,-2.59
2018-02-14T04:39:58.546Z,-2.56
2018-02-14T04:42:26.048Z,-2.51
2018-02-14T04:44:53.555Z,-2.55
2018-02-14T04:47:24.001Z,-2.51
2018-02-14T04:49:51.535Z,-2.59
2018-02-14T04:52:19.018Z,-2.55
2018-02-14T04:54:46.501Z,-2.60
2018-02-14T04:57:13.997Z,-2.59
2018-02-14T04:59:41.546Z,-2.60
2018-02-14T05:02:09.068Z,-2.64
2018-02-14T05:04:39.189Z,-2.59
2018-02-14T05:07:06.767Z,-2.64
2018-02-14T05:09:34.289Z,-2.61
2018-02-14T05:12:01.919Z,-2.64
2018-02-14T05:14:29.483Z,-2.64
2018-02-14T05:16:56.982Z,-2.68
2018-02-14T05:19:24.517Z,-2.73
2018-02-14T05:21:52.039Z,-2.78
2018-02-14T05:24:19.545Z,-2.80
2018-02-14T05:26:49.207Z,-2.82
2018-02-14T05:29:16.733Z,-2.90
2018-02-14T05:31:44.267Z,-3.01
2018-02-14T05:34:11.794Z,-2.95
2018-02-14T05:36:39.328Z,-2.88
2018-02-14T05:39:06.864Z,-2.96
2018-02-14T05:41:34.537Z,-2.95
2018-02-14T05:44:02.272Z,-2.93
2018-02-14T05:46:29.880Z,-2.96
2018-02-14T05:48:57.473Z,-2.89
2018-02-14T05:51:25.089Z,-2.85
2018-02-14T05:53:52.621Z,-2.79
2018-02-14T05:56:20.160Z,-2.77
2018-02-14T05:58:47.666Z,-2.73
2018-02-14T06:01:18.151Z,-2.78
2018-02-14T06:03:45.817Z,-2.74
2018-02-14T06:06:13.392Z,-2.74
2018-02-14T06:08:40.975Z,-2.79
2018-02-14T06:11:08.577Z,-2.78
2018-02-14T06:13:36.093Z,-2.78
2018-02-14T06:16:03.649Z,-2.75
2018-02-14T06:18:31.186Z,-2.76
2018-02-14T06:20:58.855Z,-2.73
2018-02-14T06:23:26.588Z,-2.67
2018-02-14T06:25:54.117Z,-2.68
2018-02-14T06:28:21.752Z,-2.61
2018-02-14T06:30:49.283Z,-2.61
2018-02-14T06:33:16.820Z,-2.62
2018-02-14T06:35:44.339Z,-2.67
2018-02-14T06:38:11.875Z,-2.68
2018-02-14T06:40:39.557Z,-2.67
2018-02-14T06:43:07.224Z,-2.63
2018-02-14T06:45:34.757Z,-2.69
2018-02-14T06:48:02.241Z,-2.74
2018-02-14T06:50:29.764Z,-2.80
2018-02-14T06:52:57.260Z,-2.81
2018-02-14T06:55:24.823Z,-2.82
2018-02-14T06:57:52.344Z,-2.77
2018-02-14T07:00:19.857Z,-2.79
2018-02-14T07:02:47.364Z,-2.73
2018-02-14T07:05:14.892Z,-2.68
2018-02-14T07:07:42.382Z,-2.59
2018-02-14T07:10:09.881Z,-2.54
2018-02-14T07:12:37.390Z,-2.54
2018-02-14T07:15:04.933Z,-2.44
2018-02-14T07:17:32.422Z,-2.39
2018-02-14T07:19:59.985Z,-2.04
2018-02-14T07:22:27.514Z,-1.71
2018-02-14T07:24:55.105Z,-1.41
2018-02-14T07:27:22.590Z,-1.22
2018-02-14T07:29:50.106Z,-1.02
2018-02-14T07:32:17.609Z,-0.90
2018-02-14T07:34:45.141Z,-0.59
2018-02-14T07:37:12.691Z,-0.44
2018-02-14T07:39:40.222Z,-0.59
2018-02-14T07:42:07.751Z,-0.36
2018-02-14T07:44:35.272Z,-0.25
2018-02-14T07:47:02.799Z,0.23
2018-02-14T07:49:30.362Z,0.39
2018-02-14T07:51:57.887Z,0.56
2018-02-14T07:54:25.401Z,0.75
2018-02-14T07:56:52.939Z,0.99
2018-02-14T07:59:20.549Z,0.75
2018-02-14T08:01:48.072Z,0.68
2018-02-14T08:04:15.570Z,0.75
2018-02-14T08:06:43.094Z,0.89
2018-02-14T08:09:10.614Z,0.75
2018-02-14T08:11:38.109Z,0.76
2018-02-14T08:14:05.624Z,1.39
2018-02-14T08:16:33.127Z,1.57
2018-02-14T08:19:00.643Z,2.26
2018-02-14T08:21:28.137Z,1.97
2018-02-14T08:23:55.618Z,2.20
2018-02-14T08:26:23.107Z,2.45
2018-02-14T08:28:50.622Z,3.27
2018-02-14T08:31:18.144Z,3.18
2018-02-14T08:33:45.668Z,3.88
2018-02-14T08:36:13.164Z,3.54
2018-02-14T08:38:40.705Z,3.90
2018-02-14T08:41:08.282Z,3.43
2018-02-14T08:43:35.840Z,3.36
2018-02-14T08:46:03.337Z,4.75
2018-02-14T08:48:30.836Z,5.28
2018-02-14T08:50:58.390Z,5.73
2018-02-14T08:53:25.913Z,5.88
2018-02-14T08:55:53.400Z,5.84
2018-02-14T08:58:20.968Z,5.70
2018-02-14T09:00:48.472Z,5.25
2018-02-14T09:03:16.032Z,4.94
2018-02-14T09:05:43.560Z,4.24
2018-02-14T09:08:11.150Z,4.53
2018-02-14T09:10:38.736Z,4.68
2018-02-14T09:13:06.262Z,4.85
2018-02-14T09:15:33.757Z,4.91
2018-02-14T09:18:01.420Z,4.94
2018-02-14T09:20:28.925Z,6.27
2018-02-14T09:22:56.435Z,6.43
2018-02-14T09:25:23.930Z,6.14
2018-02-14T09:27:51.469Z,7.09
2018-02-14T09:30:19.021Z,7.92
2018-02-14T09:32:46.515Z,7.86
2018-02-14T09:35:14.033Z,7.56
2018-02-14T09:37:41.551Z,8.71
2018-02-14T09:40:09.363Z,8.26
2018-02-14T09:42:36.845Z,8.84
2018-02-14T09:45:04.376Z,8.46
2018-02-14T09:47:31.990Z,9.04
2018-02-14T09:49:59.512Z,9.27
2018-02-14T09:52:27.039Z,8.22
2018-02-14T09:54:54.601Z,9.09
2018-02-14T09:57:22.168Z,9.40
2018-02-14T09:59:49.718Z,9.18
2018-02-14T10:02:17.238Z,8.76
2018-02-14T10:04:44.837Z,8.99
2018-02-14T10:07:12.359Z,8.05
2018-02-14T10:09:39.901Z,8.63
2018-02-14T10:12:07.444Z,8.83
2018-02-14T10:14:34.933Z,8.33
2018-02-14T10:17:02.456Z,8.01
2018-02-14T10:19:29.950Z,7.54
2018-02-14T10:21:57.525Z,6.95
2018-02-14T10:24:25.080Z,6.37
2018-02-14T10:26:52.673Z,5.97
2018-02-14T10:29:20.199Z,5.60
2018-02-14T10:31:47.807Z,5.59
2018-02-14T10:34:15.359Z,5.46
2018-02-14T10:36:42.853Z,5.13
2018-02-14T10:39:10.481Z,5.28
2018-02-14T10:41:38.004Z,5.01
2018-02-14T10:44:05.568Z,4.67
2018-02-14T10:46:33.086Z,4.72
2018-02-14T10:49:00.626Z,4.53
2018-02-14T10:51:28.148Z,4.52
2018-02-14T10:53:55.661Z,4.54
2018-02-14T10:56:23.210Z,4.42
2018-02-14T10:58:50.699Z,4.46
2018-02-14T11:01:23.877Z,4.54
2018-02-14T11:03:51.431Z,4.01
2018-02-14T11:06:18.950Z,4.15
2018-02-14T11:08:46.500Z,4.13
2018-02-14T11:11:14.009Z,4.36
2018-02-14T11:13:41.536Z,4.48
2018-02-14T11:16:09.061Z,4.46
2018-02-14T11:18:36.618Z,4.49
2018-02-14T11:21:04.142Z,4.48
2018-02-14T11:23:31.704Z,4.75
2018-02-14T11:25:59.200Z,4.63
2018-02-14T11:28:26.794Z,4.42
2018-02-14T11:30:54.315Z,4.59
2018-02-14T11:33:22.185Z,4.37
2018-02-14T11:35:49.691Z,4.36
2018-02-14T11:38:17.196Z,4.30
2018-02-14T11:40:44.735Z,4.33
2018-02-14T11:43:12.248Z,4.22
2018-02-14T11:45:39.729Z,4.19
2018-02-14T11:48:07.312Z,4.16
2018-02-14T11:50:34.851Z,4.29
2018-02-14T11:53:02.377Z,4.27
2018-02-14T11:55:29.914Z,4.44
2018-02-14T11:57:57.450Z,4.46
2018-02-14T12:00:25.054Z,4.56
2018-02-14T12:02:52.570Z,4.56
2018-02-14T12:05:20.099Z,4.56
2018-02-14T12:07:47.628Z,4.71
2018-02-14T12:10:15.136Z,4.64
2018-02-14T12:12:42.636Z,4.72
2018-02-14T12:15:10.216Z,4.73
2018-02-14T12:17:37.704Z,4.69
2018-02-14T12:20:05.210Z,4.63
2018-02-14T12:22:32.781Z,4.78
2018-02-14T12:25:00.270Z,4.91
2018-02-14T12:27:27.787Z,4.82
2018-02-14T12:30:00.369Z,4.81
2018-02-14T12:32:27.880Z,4.86
2018-02-14T12:34:55.434Z,5.00
2018-02-14T12:37:22.962Z,4.81
2018-02-14T12:39:51.688Z,4.72
2018-02-14T12:42:19.862Z,4.65
2018-02-14T12:44:47.741Z,4.68
2018-02-14T12:47:17.017Z,4.74
2018-02-14T12:49:44.699Z,4.89
2018-02-14T12:52:13.245Z,4.90
2018-02-14T12:54:40.826Z,5.00
2018-02-14T12:57:08.373Z,5.05
2018-02-14T12:59:38.006Z,5.06
2018-02-14T13:02:05.511Z,5.00
2018-02-14T13:04:33.026Z,5.14
2018-02-14T13:07:00.590Z,4.88
2018-02-14T13:09:28.090Z,4.77
2018-02-14T13:11:56.937Z,4.83
2018-02-14T13:14:24.490Z,4.87
2018-02-14T13:16:54.307Z,4.92
2018-02-14T13:19:23.038Z,5.00
2018-02-14T13:21:51.857Z,4.84
2018-02-14T13:24:19.448Z,4.88
2018-02-14T13:26:47.094Z,5.02
2018-02-14T13:29:14.746Z,4.96
2018-02-14T13:31:42.296Z,5.01
2018-02-14T13:34:09.862Z,4.97
2018-02-14T13:36:37.656Z,4.93
2018-02-14T13:39:06.733Z,4.88
2018-02-14T13:41:35.215Z,4.77
2018-02-14T13:44:02.757Z,4.75
2018-02-14T13:46:30.261Z,4.79
2018-02-14T13:49:01.640Z,4.72
2018-02-14T13:51:29.243Z,4.68
2018-02-14T13:53:56.798Z,4.74
2018-02-14T13:56:26.948Z,4.81
2018-02-14T13:58:57.057Z,4.67
2018-02-14T14:01:24.593Z,4.71
2018-02-14T14:03:52.227Z,4.67
2018-02-14T14:06:19.819Z,4.65
2018-02-14T14:08:47.382Z,4.60
2018-02-14T14:11:15.153Z,4.53
2018-02-14T14:13:42.730Z,4.52
2018-02-14T14:16:10.266Z,4.61
2018-02-14T14:18:37.892Z,4.63
2018-02-14T14:21:05.490Z,4.70
2018-02-14T14:23:33.059Z,4.47
2018-02-14T14:26:00.601Z,4.67
2018-02-14T14:28:28.173Z,4.60
2018-02-14T14:30:55.719Z,4.61
2018-02-14T14:33:23.237Z,4.63
2018-02-14T14:35:50.868Z,4.57
2018-02-14T14:38:18.743Z,4.53
2018-02-14T14:40:46.692Z,4.45
2018-02-14T14:43:14.241Z,4.48
2018-02-14T14:45:41.760Z,4.52
2018-02-14T14:48:09.281Z,4.41
2018-02-14T14:50:39.836Z,4.51
2018-02-14T14:53:07.360Z,4.41
2018-02-14T14:55:34.914Z,4.44
2018-02-14T14:58:02.461Z,4.48
2018-02-14T15:00:30.040Z,4.39
2018-02-14T15:02:58.177Z,4.37
2018-02-14T15:05:28.334Z,4.39
2018-02-14T15:07:56.747Z,4.42
2018-02-14T15:10:26.867Z,4.39
2018-02-14T15:12:55.876Z,4.37
2018-02-14T15:15:24.516Z,4.22
2018-02-14T15:17:52.407Z,4.23
2018-02-14T15:20:21.109Z,4.21
2018-02-14T15:22:49.253Z,4.04
2018-02-14T15:25:17.650Z,4.06
2018-02-14T15:27:46.023Z,4.13
2018-02-14T15:30:13.622Z,4.12
2018-02-14T15:32:41.203Z,4.00
2018-02-14T15:35:09.120Z,4.00
2018-02-14T15:37:36.629Z,3.99
2018-02-14T15:40:04.125Z,3.96
2018-02-14T15:45:22.040Z,3.79
2018-02-14T15:47:49.596Z,3.84
2018-02-14T15:50:17.201Z,3.79
2018-02-14T15:52:44.740Z,3.71
2018-02-14T15:55:12.478Z,3.61
2018-02-14T15:57:40.009Z,3.55
2018-02-14T16:00:08.551Z,3.55
2018-02-14T16:02:36.081Z,3.41
2018-02-14T16:05:03.820Z,3.53
2018-02-14T16:07:31.433Z,3.47
2018-02-14T16:09:59.073Z,3.42
2018-02-14T16:12:27.056Z,3.24
2018-02-14T16:14:54.632Z,3.20
2018-02-14T16:17:22.172Z,3.15
2018-02-14T16:19:49.797Z,3.13
2018-02-14T16:22:17.389Z,3.07
2018-02-14T16:24:45.576Z,3.03
2018-02-14T16:27:13.236Z,2.96
2018-02-14T16:29:40.825Z,2.92
2018-02-14T16:32:08.525Z,2.90
2018-02-14T16:34:38.346Z,2.79
2018-02-14T16:37:07.093Z,2.82
2018-02-14T16:39:35.067Z,2.78
2018-02-14T16:42:04.177Z,2.66
2018-02-14T16:44:31.836Z,2.68
2018-02-14T16:46:59.496Z,2.62
2018-02-14T16:49:27.051Z,2.60
2018-02-14T16:51:54.722Z,2.54
2018-02-14T16:54:22.967Z,2.56
2018-02-14T16:56:51.026Z,2.50
2018-02-14T16:59:18.590Z,2.45
2018-02-14T17:01:47.352Z,2.42
2018-02-14T17:04:15.047Z,2.43
2018-02-14T17:06:43.203Z,2.39
2018-02-14T17:09:10.982Z,2.23
2018-02-14T17:11:38.550Z,2.22
2018-02-14T17:14:06.082Z,2.11
2018-02-14T17:16:33.610Z,2.20
2018-02-14T17:19:01.193Z,2.09
2018-02-14T17:21:28.753Z,2.13
2018-02-14T17:23:56.357Z,2.13
2018-02-14T17:26:23.916Z,2.09
2018-02-14T17:28:51.474Z,2.10
2018-02-14T17:31:19.027Z,2.05
2018-02-14T17:33:46.614Z,2.10
2018-02-14T17:36:14.338Z,2.08
2018-02-14T17:38:42.430Z,2.02
2018-02-14T17:41:10.074Z,2.01
2018-02-14T17:43:37.730Z,2.05
2018-02-14T17:46:05.288Z,1.94
2018-02-14T17:48:32.869Z,2.03
2018-02-14T17:51:00.457Z,1.98
2018-02-14T17:53:28.203Z,2.02
2018-02-14T17:55:55.952Z,2.04
2018-02-14T17:58:23.558Z,2.03
2018-02-14T18:00:51.152Z,2.00
2018-02-14T18:03:18.713Z,1.97
2018-02-14T18:05:46.316Z,1.92
2018-02-14T18:08:13.872Z,1.90
2018-02-14T18:10:41.503Z,1.89
2018-02-14T18:13:09.029Z,1.85
2018-02-14T18:15:36.626Z,1.78
2018-02-14T18:18:06.894Z,1.77
2018-02-14T18:20:34.422Z,1.78
2018-02-14T18:23:02.037Z,1.78
2018-02-14T18:25:29.547Z,1.70
2018-02-14T18:27:57.150Z,1.70
2018-02-14T18:30:24.767Z,1.62
2018-02-14T18:32:52.315Z,1.68
2018-02-14T18:35:19.888Z,1.69
2018-02-14T18:37:47.434Z,1.67
2018-02-14T18:40:14.948Z,1.64
2018-02-14T18:42:42.516Z,1.60
2018-02-14T18:45:10.022Z,1.59
2018-02-14T18:47:38.392Z,1.59
2018-02-14T18:50:05.968Z,1.58
2018-02-14T18:52:33.538Z,1.56
2018-02-14T18:55:01.096Z,1.53
2018-02-14T18:57:28.693Z,1.51
2018-02-14T18:59:56.225Z,1.46
2018-02-14T19:02:23.766Z,1.49
2018-02-14T19:04:51.524Z,1.47
2018-02-14T19:07:19.175Z,1.51
2018-02-14T19:09:46.779Z,1.48
2018-02-14T19:12:14.392Z,1.44
2018-02-14T19:14:41.961Z,1.44
2018-02-14T19:17:09.622Z,1.46
2018-02-14T19:19:37.297Z,1.44
2018-02-14T19:22:04.845Z,1.48
2018-02-14T19:24:32.403Z,1.42
2018-02-14T19:26:59.982Z,1.34
2018-02-14T19:29:27.564Z,1.36
2018-02-14T19:31:55.149Z,1.32
2018-02-14T19:34:22.666Z,1.31
2018-02-14T19:36:50.717Z,1.32
2018-02-14T19:39:18.398Z,1.33
2018-02-14T19:41:45.945Z,1.33
2018-02-14T19:44:13.461Z,1.33
2018-02-14T19:46:41.026Z,1.38
2018-02-14T19:49:08.564Z,1.33
2018-02-14T19:51:36.097Z,1.32
2018-02-14T19:54:03.749Z,1.26
2018-02-14T19:56:31.253Z,1.28
2018-02-14T19:58:58.845Z,1.27
2018-02-14T20:01:26.353Z,1.25
2018-02-14T20:03:53.972Z,1.23
2018-02-14T20:06:21.487Z,1.23
2018-02-14T20:08:49.032Z,1.19
2018-02-14T20:11:16.572Z,1.20
2018-02-14T20:13:44.143Z,1.13
2018-02-14T20:16:11.631Z,1.13
2018-02-14T20:18:39.267Z,1.16
2018-02-14T20:21:06.750Z,1.12
2018-02-14T20:23:34.416Z,1.10
2018-02-14T20:26:02.025Z,1.06
2018-02-14T20:28:30.706Z,1.04
2018-02-14T20:30:58.204Z,1.07
2018-02-14T20:33:25.730Z,1.02
2018-02-14T20:35:53.360Z,0.96
2018-02-14T20:38:20.860Z,0.97
2018-02-14T20:40:48.337Z,0.97
2018-02-14T20:43:15.942Z,0.97
2018-02-14T20:45:43.433Z,0.96
2018-02-14T20:48:10.923Z,0.92
2018-02-14T20:50:39.405Z,0.90
2018-02-14T20:53:06.900Z,0.88
2018-02-14T20:55:34.395Z,0.87
2018-02-14T20:58:01.892Z,0.90
2018-02-14T21:00:29.378Z,0.93
2018-02-14T21:02:56.929Z,0.91
2018-02-14T21:05:25.900Z,0.88
2018-02-14T21:07:53.373Z,0.86
2018-02-14T21:10:20.874Z,0.85
2018-02-14T21:12:48.410Z,0.81
2018-02-14T21:15:15.908Z,0.82
2018-02-14T21:17:43.440Z,0.81
2018-02-14T21:20:10.938Z,0.79
2018-02-14T21:22:38.526Z,0.79
2018-02-14T21:25:06.180Z,0.74
2018-02-14T21:27:33.685Z,0.73
2018-02-14T21:30:13.865Z,0.74
2018-02-14T21:32:42.172Z,0.70
2018-02-14T21:35:09.657Z,0.66
2018-02-14T21:37:37.136Z,0.68
2018-02-14T21:40:04.622Z,0.68
2018-02-14T21:42:32.108Z,0.69
2018-02-14T21:44:59.604Z,0.62
2018-02-14T21:47:27.091Z,0.60
2018-02-14T21:49:54.656Z,0.61
2018-02-14T21:52:22.159Z,0.61
2018-02-14T21:54:49.696Z,0.61
2018-02-14T21:57:17.169Z,0.62
2018-02-14T21:59:44.679Z,0.63
2018-02-14T22:02:12.183Z,0.64
2018-02-14T22:04:39.657Z,0.63
2018-02-14T22:07:07.168Z,0.60
2018-02-14T22:09:34.685Z,0.57
2018-02-14T22:12:02.157Z,0.57
2018-02-14T22:14:29.648Z,0.57
2018-02-14T22:16:57.158Z,0.52
2018-02-14T22:19:24.630Z,0.49
2018-02-14T22:21:52.105Z,0.47
2018-02-14T22:24:19.600Z,0.35
2018-02-14T22:26:47.097Z,0.41
2018-02-14T22:29:14.589Z,0.46
2018-02-14T22:31:42.063Z,0.46
2018-02-14T22:34:09.557Z,0.46
2018-02-14T22:36:37.072Z,0.40
2018-02-14T22:39:04.600Z,0.40
2018-02-14T22:41:32.076Z,0.45
2018-02-14T22:43:59.573Z,0.46
2018-02-14T22:46:27.077Z,0.43
2018-02-14T22:48:54.569Z,0.39
2018-02-14T22:51:22.091Z,0.36
2018-02-14T22:53:49.584Z,0.25
2018-02-14T22:56:17.076Z,0.28
2018-02-14T22:58:44.607Z,0.28
2018-02-14T23:01:12.090Z,0.20
2018-02-14T23:03:39.607Z,0.20
2018-02-14T23:06:07.092Z,0.17
2018-02-14T23:08:34.604Z,0.22
2018-02-14T23:11:02.100Z,0.23
2018-02-14T23:13:29.593Z,0.27
2018-02-14T23:15:57.105Z,0.27
2018-02-14T23:18:24.612Z,0.18
2018-02-14T23:20:52.111Z,0.26
2018-02-14T23:23:19.628Z,0.29
2018-02-14T23:25:47.090Z,0.31
2018-02-14T23:28:14.581Z,0.37
2018-02-14T23:30:42.058Z,0.36
2018-02-14T23:33:09.555Z,0.30
2018-02-14T23:35:37.071Z,0.33
2018-02-14T23:38:04.612Z,0.36
2018-02-14T23:40:32.090Z,0.36
2018-02-14T23:42:59.588Z,0.32
2018-02-14T23:45:27.109Z,0.34
2018-02-14T23:47:54.598Z,0.36
2018-02-14T23:50:22.078Z,0.34
2018-02-14T23:52:49.573Z,0.31
2018-02-14T23:55:17.084Z,0.29
2018-02-14T23:57:44.647Z,0.28
